createdAt,value
2018-12-02T00:01:23.713Z,7.87
2018-12-02T00:03:53.907Z,7.58
2018-12-02T00:06:24.062Z,6.62
2018-12-02T00:08:54.229Z,6.08
2018-12-02T00:11:24.499Z,6.75
2018-12-02T00:13:54.719Z,6.58
2018-12-02T00:16:24.949Z,6.03
2018-12-02T00:18:55.117Z,6.42
2018-12-02T00:21:25.267Z,5.92
2018-12-02T00:23:55.513Z,5.90
2018-12-02T00:26:25.724Z,5.40
2018-12-02T00:28:55.889Z,5.45
2018-12-02T00:31:26.087Z,4.67
2018-12-02T00:33:56.305Z,5.00
2018-12-02T00:36:26.485Z,6.40
2018-12-02T00:38:59.689Z,5.47
2018-12-02T00:41:29.986Z,5.45
2018-12-02T00:44:00.208Z,6.08
2018-12-02T00:46:30.340Z,5.75
2018-12-02T00:49:00.496Z,5.30
2018-12-02T00:51:30.658Z,5.00
2018-12-02T00:54:00.803Z,5.45
2018-12-02T00:56:34.877Z,4.67
2018-12-02T00:59:05.039Z,4.95
2018-12-02T01:01:36.041Z,5.42
2018-12-02T01:04:07.333Z,5.33
2018-12-02T01:06:37.550Z,5.78
2018-12-02T01:09:08.418Z,6.10
2018-12-02T01:11:38.541Z,5.95
2018-12-02T01:14:08.706Z,6.25
2018-12-02T01:16:38.906Z,6.30
2018-12-02T01:19:09.179Z,4.62
2018-12-02T01:21:39.401Z,5.97
2018-12-02T01:24:09.529Z,5.47
2018-12-02T01:26:39.663Z,5.85
2018-12-02T01:29:09.819Z,6.00
2018-12-02T01:31:39.970Z,5.78
2018-12-02T01:34:10.676Z,5.47
2018-12-02T01:36:40.823Z,5.92
2018-12-02T01:39:11.014Z,4.60
2018-12-02T01:41:41.196Z,6.87
2018-12-02T01:44:11.385Z,5.85
2018-12-02T01:46:41.613Z,4.55
2018-12-02T01:49:11.793Z,5.60
2018-12-02T01:51:41.995Z,5.75
2018-12-02T01:54:12.170Z,4.80
2018-12-02T01:56:42.360Z,5.35
2018-12-02T01:59:12.525Z,5.53
2018-12-02T02:01:42.686Z,5.15
2018-12-02T02:04:13.536Z,4.33
2018-12-02T02:06:43.701Z,5.30
2018-12-02T02:09:13.877Z,5.58
2018-12-02T02:11:44.010Z,5.17
2018-12-02T02:14:14.193Z,5.35
2018-12-02T02:16:45.005Z,4.78
2018-12-02T02:19:15.196Z,4.75
2018-12-02T02:21:45.321Z,5.50
2018-12-02T02:24:15.550Z,5.75
2018-12-02T02:26:45.721Z,4.95
2018-12-02T02:29:15.897Z,5.00
2018-12-02T02:31:46.042Z,5.20
2018-12-02T02:34:16.304Z,5.10
2018-12-02T02:36:46.547Z,5.00
2018-12-02T02:39:16.751Z,5.70
2018-12-02T02:41:47.039Z,5.87
2018-12-02T02:44:17.270Z,5.85
2018-12-02T02:46:47.466Z,4.85
2018-12-02T02:49:17.602Z,4.65
2018-12-02T02:51:47.765Z,5.35
2018-12-02T02:54:17.946Z,4.80
2018-12-02T02:56:48.151Z,5.60
2018-12-02T02:59:18.389Z,4.67
2018-12-02T03:01:48.563Z,4.50
2018-12-02T03:04:18.681Z,4.85
2018-12-02T03:06:48.881Z,4.83
2018-12-02T03:09:19.037Z,5.12
2018-12-02T03:11:49.103Z,4.42
2018-12-02T03:14:19.250Z,4.50
2018-12-02T03:16:49.386Z,4.80
2018-12-02T03:19:19.511Z,4.55
2018-12-02T03:21:49.690Z,5.15
2018-12-02T03:24:19.788Z,4.35
2018-12-02T03:26:50.600Z,4.55
2018-12-02T03:29:21.848Z,4.62
2018-12-02T03:31:51.971Z,5.05
2018-12-02T03:34:22.142Z,4.35
2018-12-02T03:36:52.307Z,4.95
2018-12-02T03:39:22.524Z,4.60
2018-12-02T03:41:52.723Z,5.08
2018-12-02T03:44:22.849Z,5.15
2018-12-02T03:46:53.054Z,5.35
2018-12-02T03:49:23.218Z,5.20
2018-12-02T03:51:53.434Z,5.25
2018-12-02T03:54:23.568Z,5.10
2018-12-02T03:56:53.766Z,4.65
2018-12-02T03:59:23.950Z,4.40
2018-12-02T04:01:54.169Z,4.90
2018-12-02T04:04:24.376Z,4.22
2018-12-02T04:06:54.530Z,3.85
2018-12-02T04:09:24.688Z,4.37
2018-12-02T04:11:54.860Z,4.28
2018-12-02T04:14:31.731Z,4.50
2018-12-02T04:17:01.972Z,4.70
2018-12-02T04:19:32.101Z,4.15
2018-12-02T04:22:02.256Z,4.45
2018-12-02T04:24:32.535Z,4.12
2018-12-02T04:27:02.742Z,3.98
2018-12-02T04:29:32.981Z,4.47
2018-12-02T04:32:03.210Z,3.20
2018-12-02T04:34:33.321Z,3.65
2018-12-02T04:37:03.532Z,3.67
2018-12-02T04:39:33.712Z,4.50
2018-12-02T04:42:03.902Z,3.25
2018-12-02T04:44:34.076Z,3.72
2018-12-02T04:47:04.228Z,3.22
2018-12-02T04:49:34.518Z,3.30
2018-12-02T04:52:04.684Z,3.85
2018-12-02T04:54:34.838Z,3.50
2018-12-02T04:57:05.247Z,3.40
2018-12-02T04:59:35.390Z,3.55
2018-12-02T05:02:05.918Z,2.90
2018-12-02T05:04:36.064Z,3.52
2018-12-02T05:07:06.620Z,2.87
2018-12-02T05:09:36.766Z,3.00
2018-12-02T05:12:07.266Z,3.10
2018-12-02T05:14:37.502Z,2.72
2018-12-02T05:17:07.775Z,2.98
2018-12-02T05:19:38.038Z,3.20
2018-12-02T05:22:08.224Z,3.40
2018-12-02T05:24:38.478Z,2.70
2018-12-02T05:27:08.618Z,3.02
2018-12-02T05:29:38.818Z,2.87
2018-12-02T05:32:09.027Z,2.90
2018-12-02T05:34:39.159Z,2.75
2018-12-02T05:37:09.456Z,2.60
2018-12-02T05:39:39.782Z,2.45
2018-12-02T05:42:15.131Z,2.75
2018-12-02T05:44:45.336Z,2.80
2018-12-02T05:47:15.483Z,2.60
2018-12-02T05:49:45.665Z,2.40
2018-12-02T05:52:15.877Z,3.08
2018-12-02T05:54:46.028Z,3.50
2018-12-02T05:57:16.289Z,3.65
2018-12-02T05:59:46.424Z,3.80
2018-12-02T06:02:17.673Z,3.83
2018-12-02T06:04:46.816Z,3.65
2018-12-02T06:07:17.124Z,3.92
2018-12-02T06:09:47.259Z,3.75
2018-12-02T06:12:17.453Z,3.95
2018-12-02T06:14:47.624Z,4.28
2018-12-02T06:17:17.825Z,4.10
2018-12-02T06:19:47.926Z,4.08
2018-12-02T06:22:18.102Z,4.37
2018-12-02T06:24:48.262Z,4.40
2018-12-02T06:27:18.461Z,3.65
2018-12-02T06:29:48.598Z,3.52
2018-12-02T06:32:18.741Z,3.30
2018-12-02T06:34:48.929Z,3.00
2018-12-02T06:37:19.083Z,3.30
2018-12-02T06:39:49.293Z,3.50
2018-12-02T06:42:19.434Z,3.87
2018-12-02T06:44:49.670Z,3.75
2018-12-02T06:47:19.776Z,4.25
2018-12-02T06:49:49.916Z,3.75
2018-12-02T06:52:20.286Z,4.42
2018-12-02T06:54:58.764Z,4.08
2018-12-02T06:57:33.193Z,4.78
2018-12-02T07:00:24.990Z,3.72
2018-12-02T07:03:39.695Z,4.35
2018-12-02T07:06:09.875Z,3.85
2018-12-02T07:08:40.090Z,3.77
2018-12-02T07:11:10.293Z,3.37
2018-12-02T07:13:40.599Z,3.00
2018-12-02T07:16:10.786Z,3.58
2018-12-02T07:18:45.995Z,3.17
2018-12-02T07:21:21.365Z,3.70
2018-12-02T07:23:54.776Z,3.98
2018-12-02T07:26:31.106Z,3.70
2018-12-02T07:29:01.267Z,3.27
2018-12-02T07:31:31.451Z,3.02
2018-12-02T07:34:17.486Z,3.15
2018-12-02T07:37:07.871Z,2.80
2018-12-02T07:40:31.796Z,3.42
2018-12-02T07:43:02.818Z,3.12
2018-12-02T07:45:33.978Z,3.52
2018-12-02T07:48:04.817Z,3.80
2018-12-02T07:50:35.130Z,3.50
2018-12-02T07:53:05.747Z,2.90
2018-12-02T07:55:36.954Z,3.62
2018-12-02T07:58:12.413Z,3.05
2018-12-02T08:00:42.703Z,3.83
2018-12-02T08:03:13.039Z,3.92
2018-12-02T08:05:43.232Z,3.17
2018-12-02T08:08:13.430Z,3.25
2018-12-02T08:10:43.617Z,3.20
2018-12-02T08:13:13.851Z,3.00
2018-12-02T08:15:44.055Z,2.75
2018-12-02T08:18:14.258Z,3.30
2018-12-02T08:20:47.047Z,2.40
2018-12-02T08:23:19.088Z,2.87
2018-12-02T08:25:50.075Z,2.90
2018-12-02T08:28:20.359Z,3.25
2018-12-02T08:30:50.579Z,2.37
2018-12-02T08:33:20.747Z,2.30
2018-12-02T08:35:50.887Z,2.35
2018-12-02T08:38:21.127Z,1.90
2018-12-02T08:40:51.350Z,2.40
2018-12-02T08:43:21.488Z,2.52
2018-12-02T08:45:51.696Z,2.47
2018-12-02T08:48:21.900Z,1.72
2018-12-02T08:50:52.085Z,2.00
2018-12-02T08:53:22.243Z,2.10
2018-12-02T08:55:52.401Z,2.47
2018-12-02T08:58:22.569Z,1.75
2018-12-02T09:00:52.797Z,2.00
2018-12-02T09:03:22.970Z,2.35
2018-12-02T09:05:53.082Z,2.37
2018-12-02T09:08:23.252Z,2.35
2018-12-02T09:10:53.375Z,1.82
2018-12-02T09:13:23.597Z,2.35
2018-12-02T09:15:53.838Z,2.40
2018-12-02T09:18:24.178Z,2.30
2018-12-02T09:20:54.461Z,2.40
2018-12-02T09:23:24.848Z,1.85
2018-12-02T09:25:55.354Z,2.40
2018-12-02T09:28:25.752Z,2.60
2018-12-02T09:30:56.126Z,2.47
2018-12-02T09:33:26.472Z,1.72
2018-12-02T09:35:56.769Z,2.25
2018-12-02T09:38:27.147Z,2.35
2018-12-02T09:40:57.318Z,3.42
2018-12-02T09:43:27.731Z,2.20
2018-12-02T09:45:58.140Z,1.35
2018-12-02T09:48:28.504Z,1.65
2018-12-02T09:50:58.652Z,2.05
2018-12-02T09:53:28.897Z,2.02
2018-12-02T09:55:59.199Z,2.20
2018-12-02T09:58:36.129Z,1.70
2018-12-02T10:01:06.406Z,1.98
2018-12-02T10:03:36.594Z,1.70
2018-12-02T10:06:06.858Z,1.50
2018-12-02T10:08:37.016Z,1.90
2018-12-02T10:11:07.824Z,1.92
2018-12-02T10:13:40.065Z,1.92
2018-12-02T10:16:15.664Z,2.05
2018-12-02T10:18:45.554Z,1.90
2018-12-02T10:21:26.746Z,1.90
2018-12-02T10:24:00.934Z,1.45
2018-12-02T10:26:33.393Z,1.65
2018-12-02T10:29:06.367Z,1.82
2018-12-02T10:31:39.631Z,1.72
2018-12-02T10:34:13.075Z,1.85
2018-12-02T10:36:45.337Z,2.10
2018-12-02T10:39:17.833Z,2.00
2018-12-02T10:41:48.044Z,1.80
2018-12-02T10:44:18.220Z,1.90
2018-12-02T10:46:48.448Z,1.40
2018-12-02T10:49:18.613Z,1.62
2018-12-02T10:51:48.701Z,1.95
2018-12-02T10:54:18.877Z,1.90
2018-12-02T10:56:49.098Z,1.70
2018-12-02T10:59:19.365Z,1.40
2018-12-02T11:01:53.600Z,1.52
2018-12-02T11:04:32.560Z,1.40
2018-12-02T11:07:02.657Z,1.30
2018-12-02T11:09:32.884Z,1.60
2018-12-02T11:12:03.018Z,1.40
2018-12-02T11:14:33.198Z,1.35
2018-12-02T11:17:05.147Z,1.52
2018-12-02T11:19:36.106Z,1.52
2018-12-02T11:22:06.711Z,1.52
2018-12-02T11:24:36.866Z,1.82
2018-12-02T11:27:09.058Z,1.82
2018-12-02T11:29:39.990Z,1.45
2018-12-02T11:32:11.752Z,1.50
2018-12-02T11:34:42.542Z,1.60
2018-12-02T11:37:14.447Z,1.20
2018-12-02T11:39:46.161Z,1.20
2018-12-02T11:42:17.464Z,1.10
2018-12-02T11:44:51.479Z,1.30
2018-12-02T11:47:21.664Z,1.32
2018-12-02T11:49:53.152Z,1.20
2018-12-02T11:52:23.359Z,1.52
2018-12-02T11:54:53.469Z,3.00
2018-12-02T11:57:26.859Z,1.98
2018-12-02T11:59:57.013Z,1.10
2018-12-02T12:02:27.170Z,1.50
2018-12-02T12:04:57.488Z,1.40
2018-12-02T12:07:27.688Z,1.30
2018-12-02T12:09:58.149Z,1.20
2018-12-02T12:12:28.344Z,1.17
2018-12-02T12:14:58.804Z,1.35
2018-12-02T12:17:28.892Z,3.25
2018-12-02T12:19:59.175Z,2.90
2018-12-02T12:22:29.456Z,10.40
2018-12-02T12:24:59.636Z,4.60
2018-12-02T12:27:30.634Z,3.17
2018-12-02T12:30:00.883Z,3.10
2018-12-02T12:32:30.967Z,3.22
2018-12-02T12:35:01.157Z,3.10
2018-12-02T12:37:31.365Z,4.28
2018-12-02T12:40:01.513Z,3.52
2018-12-02T12:42:31.756Z,2.50
2018-12-02T12:45:01.849Z,2.80
2018-12-02T12:47:32.099Z,1.40
2018-12-02T12:50:02.302Z,1.40
2018-12-02T12:52:32.477Z,1.30
2018-12-02T12:55:02.664Z,1.40
2018-12-02T12:57:32.874Z,1.22
2018-12-02T13:00:03.158Z,0.90
2018-12-02T13:02:33.295Z,1.10
2018-12-02T13:05:03.445Z,0.90
2018-12-02T13:07:33.636Z,1.07
2018-12-02T13:10:04.293Z,1.20
2018-12-02T13:12:34.428Z,1.00
2018-12-02T13:15:05.026Z,1.10
2018-12-02T13:17:35.237Z,4.25
2018-12-02T13:27:14.029Z,1.10
2018-12-02T13:29:44.199Z,1.40
2018-12-02T13:32:14.317Z,1.20
2018-12-02T13:34:44.497Z,1.00
2018-12-02T13:37:14.590Z,1.10
2018-12-02T13:39:44.761Z,1.00
2018-12-02T13:42:14.930Z,1.00
2018-12-02T13:44:45.082Z,1.00
2018-12-02T13:47:15.199Z,1.00
2018-12-02T13:49:45.330Z,0.93
2018-12-02T13:52:15.531Z,1.07
2018-12-02T13:54:45.692Z,1.00
2018-12-02T13:57:15.843Z,1.00
2018-12-02T13:59:45.979Z,1.05
2018-12-02T14:02:16.207Z,1.12
2018-12-02T14:04:46.400Z,1.10
2018-12-02T14:07:16.559Z,1.22
2018-12-02T14:09:46.752Z,1.25
2018-12-02T14:12:16.969Z,1.00
2018-12-02T14:14:48.269Z,1.00
2018-12-02T14:17:22.005Z,1.00
2018-12-02T14:19:52.196Z,1.00
2018-12-02T14:22:22.332Z,1.35
2018-12-02T14:24:52.835Z,1.50
2018-12-02T14:27:23.019Z,1.20
2018-12-02T14:29:55.401Z,1.20
2018-12-02T14:32:26.848Z,1.30
2018-12-02T14:34:56.989Z,1.27
2018-12-02T14:37:27.175Z,1.70
2018-12-02T14:39:57.325Z,1.30
2018-12-02T14:42:27.458Z,1.00
2018-12-02T14:44:57.669Z,1.42
2018-12-02T14:47:27.868Z,1.30
2018-12-02T14:49:58.044Z,1.10
2018-12-02T14:52:28.220Z,1.27
2018-12-02T14:54:58.343Z,1.42
2018-12-02T14:57:28.508Z,1.55
2018-12-02T14:59:58.658Z,1.50
2018-12-02T15:02:28.879Z,1.50
2018-12-02T15:04:59.051Z,1.05
2018-12-02T15:07:29.205Z,1.27
2018-12-02T15:09:59.359Z,1.65
2018-12-02T15:12:29.497Z,1.15
2018-12-02T15:14:59.666Z,1.45
2018-12-02T15:17:29.770Z,1.30
2018-12-02T15:19:59.963Z,1.10
2018-12-02T15:22:30.151Z,1.10
2018-12-02T15:25:00.352Z,1.00
2018-12-02T15:27:30.564Z,0.90
2018-12-02T15:30:00.743Z,1.17
2018-12-02T15:32:30.892Z,0.90
2018-12-02T15:35:01.030Z,1.10
2018-12-02T15:37:31.232Z,0.80
2018-12-02T15:40:01.424Z,0.90
2018-12-02T15:42:31.548Z,1.10
2018-12-02T15:45:01.665Z,1.00
2018-12-02T15:47:31.802Z,1.15
2018-12-02T15:50:02.000Z,0.90
2018-12-02T15:52:32.153Z,1.00
2018-12-02T15:55:02.277Z,0.90
2018-12-02T15:57:32.400Z,1.02
2018-12-02T16:00:02.549Z,1.20
2018-12-02T16:02:32.681Z,1.60
2018-12-02T16:05:02.816Z,1.05
2018-12-02T16:07:32.990Z,0.98
2018-12-02T16:10:03.133Z,1.00
2018-12-02T16:12:33.313Z,1.55
2018-12-02T16:15:03.859Z,1.77
2018-12-02T16:17:34.118Z,1.72
2018-12-02T16:20:05.512Z,1.30
2018-12-02T16:22:35.736Z,1.20
2018-12-02T16:25:07.430Z,1.20
2018-12-02T16:27:37.734Z,1.20
2018-12-02T16:30:16.969Z,1.32
2018-12-02T16:32:52.873Z,1.00
2018-12-02T16:35:25.514Z,1.12
2018-12-02T16:37:56.361Z,1.30
2018-12-02T16:40:27.099Z,1.30
2018-12-02T16:42:58.346Z,1.45
2018-12-02T16:45:28.628Z,2.40
2018-12-02T16:47:59.335Z,1.98
2018-12-02T16:50:37.473Z,2.20
2018-12-02T16:53:14.809Z,1.50
2018-12-02T16:55:56.876Z,1.50
2018-12-02T16:58:39.316Z,1.57
2018-12-02T17:01:16.203Z,2.00
2018-12-02T17:03:46.511Z,1.20
2018-12-02T17:06:16.701Z,1.10
2018-12-02T17:08:46.948Z,1.32
2018-12-02T17:11:17.202Z,1.70
2018-12-02T17:13:47.534Z,1.27
2018-12-02T17:18:44.388Z,1.30
2018-12-02T17:21:14.543Z,1.10
2018-12-02T17:23:45.914Z,1.10
2018-12-02T17:26:14.987Z,1.80
2018-12-02T17:28:45.207Z,1.40
2018-12-02T17:31:20.889Z,1.20
2018-12-02T17:33:51.231Z,1.30
2018-12-02T17:36:21.471Z,1.25
2018-12-02T17:38:55.674Z,1.10
2018-12-02T17:41:25.829Z,1.50
2018-12-02T17:43:56.007Z,1.32
2018-12-02T17:46:26.194Z,1.42
2018-12-02T17:48:56.535Z,1.25
2018-12-02T17:51:26.796Z,1.55
2018-12-02T17:53:57.126Z,2.05
2018-12-02T17:56:27.413Z,1.50
2018-12-02T17:58:58.339Z,1.70
2018-12-02T18:01:28.673Z,1.25
2018-12-02T18:03:59.188Z,1.40
2018-12-02T18:06:29.527Z,1.85
2018-12-02T18:08:59.710Z,1.47
2018-12-02T18:11:29.913Z,1.20
2018-12-02T18:14:00.049Z,1.70
2018-12-02T18:16:30.216Z,1.42
2018-12-02T18:19:00.457Z,1.30
2018-12-02T18:21:30.675Z,1.60
2018-12-02T18:24:00.850Z,1.50
2018-12-02T18:26:31.013Z,1.30
2018-12-02T18:29:01.200Z,1.67
2018-12-02T18:31:31.851Z,1.40
2018-12-02T18:34:01.987Z,1.70
2018-12-02T18:36:34.617Z,1.45
2018-12-02T18:39:15.697Z,1.70
2018-12-02T18:41:49.414Z,1.40
2018-12-02T18:44:19.708Z,1.50
2018-12-02T18:46:50.236Z,1.92
2018-12-02T18:49:20.407Z,1.55
2018-12-02T18:51:50.583Z,1.60
2018-12-02T18:54:20.801Z,1.50
2018-12-02T18:56:50.972Z,1.45
2018-12-02T18:59:21.236Z,1.60
2018-12-02T19:01:51.370Z,2.00
2018-12-02T19:04:21.613Z,2.00
2018-12-02T19:06:51.804Z,1.80
2018-12-02T19:09:21.909Z,2.20
2018-12-02T19:11:52.102Z,1.50
2018-12-02T19:14:22.293Z,1.42
2018-12-02T19:16:52.424Z,1.72
2018-12-02T19:19:22.715Z,1.80
2018-12-02T19:21:52.948Z,1.42
2018-12-02T19:24:23.154Z,1.50
2018-12-02T19:26:53.312Z,1.30
2018-12-02T19:29:23.498Z,2.15
2018-12-02T19:31:53.649Z,1.50
2018-12-02T19:34:23.962Z,1.60
2018-12-02T19:36:59.906Z,1.47
2018-12-02T19:39:30.054Z,1.50
2018-12-02T19:42:00.298Z,1.45
2018-12-02T19:44:30.505Z,1.57
2018-12-02T19:47:00.662Z,1.65
2018-12-02T19:49:30.855Z,1.72
2018-12-02T19:52:01.021Z,1.60
2018-12-02T19:54:31.301Z,2.42
2018-12-02T19:57:01.354Z,1.92
2018-12-02T19:59:31.598Z,1.80
2018-12-02T20:02:01.755Z,2.05
2018-12-02T20:04:31.888Z,1.98
2018-12-02T20:07:02.083Z,1.67
2018-12-02T20:09:32.378Z,1.60
2018-12-02T20:12:02.629Z,1.60
2018-12-02T20:14:32.899Z,2.15
2018-12-02T20:17:03.200Z,1.40
2018-12-02T20:19:38.643Z,1.50
2018-12-02T20:22:08.625Z,1.50
2018-12-02T20:24:39.926Z,1.92
2018-12-02T20:27:10.711Z,1.62
2018-12-02T20:29:40.890Z,1.75
2018-12-02T20:32:12.826Z,2.00
2018-12-02T20:34:42.917Z,2.00
2018-12-02T20:37:13.050Z,2.10
2018-12-02T20:39:43.236Z,1.52
2018-12-02T20:42:13.381Z,2.22
2018-12-02T20:44:43.489Z,1.50
2018-12-02T20:47:13.683Z,1.27
2018-12-02T20:49:43.892Z,1.92
2018-12-02T20:52:14.010Z,1.50
2018-12-02T20:54:44.206Z,1.40
2018-12-02T20:57:14.511Z,1.42
2018-12-02T20:59:44.740Z,1.40
2018-12-02T21:02:14.951Z,1.40
2018-12-02T21:04:45.221Z,1.60
2018-12-02T21:07:15.483Z,1.60
2018-12-02T21:09:45.786Z,1.60
2018-12-02T21:12:16.035Z,1.85
2018-12-02T21:14:46.297Z,2.08
2018-12-02T21:17:16.472Z,2.55
2018-12-02T21:19:46.675Z,1.40
2018-12-02T21:22:16.969Z,1.60
2018-12-02T21:24:47.084Z,2.00
2018-12-02T21:27:17.266Z,3.08
2018-12-02T21:29:47.429Z,3.30
2018-12-02T21:32:22.360Z,2.37
2018-12-02T21:34:47.720Z,2.80
2018-12-02T21:37:17.899Z,2.70
2018-12-02T21:39:48.060Z,2.35
2018-12-02T21:42:18.251Z,1.90
2018-12-02T21:44:48.409Z,1.75
2018-12-02T21:47:21.156Z,2.10
2018-12-02T21:49:48.683Z,2.00
2018-12-02T21:52:18.882Z,2.02
2018-12-02T21:54:49.000Z,1.60
2018-12-02T21:57:19.136Z,1.60
2018-12-02T21:59:49.302Z,1.70
2018-12-02T22:02:19.449Z,1.87
2018-12-02T22:04:49.605Z,1.95
2018-12-02T22:07:19.704Z,2.20
2018-12-02T22:09:49.843Z,1.50
2018-12-02T22:12:20.030Z,1.55
2018-12-02T22:14:50.181Z,1.77
2018-12-02T22:17:20.391Z,1.40
2018-12-02T22:19:50.497Z,1.35
2018-12-02T22:22:20.712Z,1.50
2018-12-02T22:24:50.908Z,1.40
2018-12-02T22:27:21.010Z,1.98
2018-12-02T22:29:51.155Z,1.37
2018-12-02T22:32:21.256Z,1.50
2018-12-02T22:34:51.401Z,1.15
2018-12-02T22:37:21.518Z,1.52
2018-12-02T22:39:51.633Z,1.30
2018-12-02T22:42:21.773Z,1.37
2018-12-02T22:44:52.783Z,1.40
2018-12-02T22:47:22.747Z,1.55
2018-12-02T22:49:52.942Z,1.40
2018-12-02T22:52:23.120Z,1.52
2018-12-02T22:54:53.265Z,1.45
2018-12-02T22:57:23.412Z,1.25
2018-12-02T22:59:53.587Z,1.10
2018-12-02T23:02:28.810Z,1.25
2018-12-02T23:04:58.935Z,1.50
2018-12-02T23:07:29.103Z,1.05
2018-12-02T23:09:59.225Z,1.27
2018-12-02T23:12:29.410Z,1.40
2018-12-02T23:14:59.537Z,1.20
2018-12-02T23:17:29.709Z,1.20
2018-12-02T23:19:59.890Z,1.27
2018-12-02T23:22:30.026Z,1.35
2018-12-02T23:25:00.319Z,1.35
2018-12-02T23:27:30.470Z,1.00
2018-12-02T23:30:00.741Z,1.12
2018-12-02T23:32:30.926Z,2.17
2018-12-02T23:35:02.125Z,1.12
2018-12-02T23:37:32.299Z,0.90
2018-12-02T23:40:02.573Z,1.50
2018-12-02T23:42:32.806Z,1.40
2018-12-02T23:45:03.110Z,1.20
2018-12-02T23:47:33.315Z,1.15
2018-12-02T23:50:03.437Z,1.00
2018-12-02T23:52:33.660Z,0.90
2018-12-02T23:55:03.986Z,1.20
2018-12-02T23:57:34.209Z,1.20
